Time;durP1;ratioP1;P1;durP2;ratioP2;P2;SDS_P1;SDS_P2;PMS_P1;PMS_P2;Temp;Humidity;BMP_temperature;BMP_pressure;BME280_temperature;BME280_humidity;BME280_pressure;Samples;Min_cycle;Max_cycle;Signal;HPM_P1;HPM_P2
2023/08/26 00:00:48;;;;;;;0.10;0.10;;;;;;;22.96;100.00;99551.63;5075061;28;20028;-63
2023/08/26 00:03:15;;;;;;;0.10;0.10;;;;;;;22.95;100.00;99556.19;5090707;28;20028;-62
2023/08/26 00:05:41;;;;;;;0.10;0.10;;;;;;;22.88;100.00;99551.47;5078867;28;20033;-63
2023/08/26 00:08:07;;;;;;;0.10;0.10;;;;;;;22.90;100.00;99554.91;5069539;28;20025;-62
2023/08/26 00:10:32;;;;;;;0.10;0.10;;;;;;;22.93;100.00;99565.47;5085409;28;20017;-63
2023/08/26 00:12:58;;;;;;;0.10;0.10;;;;;;;22.93;100.00;99569.03;5070756;28;20052;-63
2023/08/26 00:15:23;;;;;;;0.10;0.10;;;;;;;22.95;100.00;99571.59;5068789;28;20016;-63
2023/08/26 00:17:48;;;;;;;0.10;0.10;;;;;;;22.87;100.00;99579.56;5072051;28;20518;-63
2023/08/26 00:20:15;;;;;;;0.10;0.10;;;;;;;22.85;100.00;99571.56;5075658;28;20353;-62
2023/08/26 00:22:41;;;;;;;0.10;0.10;;;;;;;22.82;100.00;99577.28;5088474;28;20598;-63
2023/08/26 00:25:07;;;;;;;0.10;0.10;;;;;;;22.80;100.00;99573.84;5070806;28;20052;-63
2023/08/26 00:27:32;;;;;;;0.10;0.10;;;;;;;22.79;100.00;99572.13;5070766;28;20048;-63
2023/08/26 00:29:58;;;;;;;0.20;0.20;;;;;;;22.84;100.00;99574.44;5071821;28;20052;-63
2023/08/26 00:32:23;;;;;;;0.10;0.10;;;;;;;22.87;100.00;99577.72;5084994;28;20028;-62
2023/08/26 00:34:49;;;;;;;0.10;0.10;;;;;;;22.81;100.00;99583.72;5087104;28;20024;-62
2023/08/26 00:37:14;;;;;;;0.10;0.10;;;;;;;22.83;100.00;99584.41;5087578;28;20412;-63
2023/08/26 00:39:40;;;;;;;0.10;0.10;;;;;;;22.88;100.00;99582.13;5090040;28;20027;-63
2023/08/26 00:42:05;;;;;;;0.10;0.10;;;;;;;22.82;100.00;99569.13;5088868;28;20031;-62
2023/08/26 00:44:31;;;;;;;0.10;0.10;;;;;;;22.76;100.00;99585.09;5083239;28;20039;-62
2023/08/26 00:46:57;;;;;;;0.20;0.20;;;;;;;22.81;100.00;99602.69;5069734;28;20020;-62
2023/08/26 00:49:23;;;;;;;0.10;0.10;;;;;;;22.85;100.00;99612.25;5069982;28;20074;-62
2023/08/26 00:51:49;;;;;;;0.10;0.10;;;;;;;22.88;100.00;99605.72;5087170;28;20400;-63
2023/08/26 00:54:16;;;;;;;0.10;0.10;;;;;;;22.88;100.00;99609.25;5090070;28;20028;-62
2023/08/26 00:56:42;;;;;;;0.10;0.10;;;;;;;22.88;100.00;99611.16;5079785;28;20028;-62
2023/08/26 00:59:07;;;;;;;0.20;0.20;;;;;;;22.89;100.00;99616.44;5070042;28;20039;-62
2023/08/26 01:01:34;;;;;;;0.10;0.10;;;;;;;22.89;100.00;99621.84;5070862;28;20438;-63
2023/08/26 01:03:59;;;;;;;0.10;0.10;;;;;;;22.87;100.00;99628.38;5069976;28;20036;-63
2023/08/26 01:06:26;;;;;;;0.20;0.20;;;;;;;22.84;100.00;99626.81;5070304;28;20035;-62
2023/08/26 01:08:52;;;;;;;0.10;0.10;;;;;;;22.81;100.00;99623.53;5071423;28;20122;-63
2023/08/26 01:11:39;;;;;;;0.20;0.20;;;;;;;22.74;100.00;99623.22;5069304;28;20555;-63
2023/08/26 01:14:33;;;;;;;0.10;0.10;;;;;;;22.76;100.00;99621.22;5071603;28;20668;-63
2023/08/26 01:17:01;;;;;;;0.10;0.10;;;;;;;22.72;100.00;99619.78;5068521;28;20035;-63
2023/08/26 01:19:31;;;;;;;0.10;0.10;;;;;;;22.74;100.00;99627.75;5071274;28;20040;-63
2023/08/26 01:22:01;;;;;;;0.20;0.20;;;;;;;22.75;100.00;99619.50;5088162;28;20028;-63
2023/08/26 01:24:26;;;;;;;0.10;0.10;;;;;;;22.75;100.00;99618.66;5087120;28;20055;-62
2023/08/26 01:26:52;;;;;;;0.10;0.10;;;;;;;22.75;100.00;99624.91;5070099;28;20055;-63
2023/08/26 01:29:18;;;;;;;0.10;0.10;;;;;;;22.73;100.00;99626.94;5068044;28;20028;-62
2023/08/26 01:31:47;;;;;;;0.10;0.10;;;;;;;22.74;100.00;99628.63;5074463;28;20031;-63
2023/08/26 01:34:15;;;;;;;0.10;0.10;;;;;;;22.71;100.00;99628.03;5089505;28;20066;-62
2023/08/26 01:36:44;;;;;;;0.10;0.10;;;;;;;22.70;100.00;99626.34;5089517;28;20494;-62
2023/08/26 01:39:15;;;;;;;0.10;0.10;;;;;;;22.69;100.00;99630.91;5089502;28;20114;-63
2023/08/26 01:41:45;;;;;;;0.20;0.20;;;;;;;22.68;100.00;99629.19;5072249;28;20048;-62
2023/08/26 01:44:11;;;;;;;0.10;0.10;;;;;;;22.70;100.00;99624.47;5069568;28;20020;-62
2023/08/26 01:46:37;;;;;;;0.10;0.10;;;;;;;22.71;100.00;99628.03;5071952;28;20036;-62
2023/08/26 01:49:04;;;;;;;0.20;0.20;;;;;;;22.73;100.00;99632.34;5069369;28;20024;-62
2023/08/26 01:51:31;;;;;;;0.10;0.10;;;;;;;22.71;100.00;99634.34;5070212;28;20020;-62
2023/08/26 01:53:56;;;;;;;0.10;0.10;;;;;;;22.70;100.00;99638.03;5070125;28;20628;-63
2023/08/26 01:56:21;;;;;;;0.10;0.10;;;;;;;22.71;100.00;99650.59;5087618;28;20077;-62
2023/08/26 01:58:47;;;;;;;0.10;0.10;;;;;;;22.70;100.00;99653.44;5085434;28;20054;-62
2023/08/26 02:01:12;;;;;;;0.20;0.20;;;;;;;22.65;100.00;99648.41;5088939;28;20103;-62
2023/08/26 02:03:37;;;;;;;0.10;0.10;;;;;;;22.67;100.00;99649.16;5085844;28;20489;-62
2023/08/26 02:06:03;;;;;;;0.10;0.10;;;;;;;22.68;100.00;99650.00;5087486;28;20039;-62
2023/08/26 02:08:28;;;;;;;0.10;0.10;;;;;;;22.68;100.00;99650.88;5089111;28;20028;-63
2023/08/26 02:10:57;;;;;;;0.10;0.10;;;;;;;22.61;100.00;99649.69;5075155;28;20039;-62
2023/08/26 02:13:24;;;;;;;0.10;0.10;;;;;;;22.54;100.00;99653.94;5073535;28;20055;-62
2023/08/26 02:15:49;;;;;;;0.10;0.10;;;;;;;22.52;100.00;99644.19;5087181;28;20108;-62
2023/08/26 02:18:15;;;;;;;0.10;0.10;;;;;;;22.52;100.00;99639.59;5087371;28;20043;-62
2023/08/26 02:20:42;;;;;;;0.10;0.10;;;;;;;22.56;100.00;99640.22;5087480;28;20031;-61
2023/08/26 02:23:08;;;;;;;0.10;0.10;;;;;;;22.54;100.00;99643.09;5057656;28;20066;-61
2023/08/26 02:25:33;;;;;;;0.10;0.10;;;;;;;22.50;100.00;99647.03;5068217;28;20032;-62
2023/08/26 02:27:58;;;;;;;0.10;0.10;;;;;;;22.42;100.00;99660.38;5070868;28;20032;-62
2023/08/26 02:30:24;;;;;;;0.10;0.10;;;;;;;22.40;100.00;99650.66;5068379;28;20107;-62
2023/08/26 02:32:49;;;;;;;0.20;0.20;;;;;;;22.41;100.00;99658.66;5085818;28;20548;-62
2023/08/26 02:35:15;;;;;;;0.10;0.10;;;;;;;22.44;100.00;99654.84;5072129;28;20031;-62
2023/08/26 02:37:40;;;;;;;0.20;0.20;;;;;;;22.44;100.00;99652.97;5067416;28;20032;-62
2023/08/26 02:40:06;;;;;;;0.20;0.20;;;;;;;22.38;100.00;99664.34;5067241;28;20704;-62
2023/08/26 02:42:32;;;;;;;0.20;0.20;;;;;;;22.33;100.00;99665.72;5078236;28;20055;-61
2023/08/26 02:44:59;;;;;;;0.10;0.10;;;;;;;22.30;100.00;99672.28;5070108;28;20040;-62
2023/08/26 02:47:24;;;;;;;0.20;0.20;;;;;;;22.34;100.00;99671.03;5067720;28;20433;-62
2023/08/26 02:49:50;;;;;;;0.20;0.20;;;;;;;22.22;100.00;99647.72;5070838;28;20035;-61
2023/08/26 02:52:15;;;;;;;0.10;0.10;;;;;;;22.35;100.00;99675.47;5080358;28;20027;-62
2023/08/26 02:54:41;;;;;;;0.20;0.20;;;;;;;22.32;100.00;99674.88;5088971;28;20020;-62
2023/08/26 02:57:06;;;;;;;0.20;0.20;;;;;;;22.26;100.00;99673.53;5076982;28;20025;-63
2023/08/26 02:59:31;;;;;;;0.10;0.10;;;;;;;22.26;100.00;99681.66;5072337;28;20032;-62
2023/08/26 03:02:04;;;;;;;0.10;0.10;;;;;;;22.26;100.00;99678.94;5071768;28;20028;-62
2023/08/26 03:04:30;;;;;;;0.20;0.20;;;;;;;22.23;100.00;99679.22;5071836;28;20064;-62
2023/08/26 03:06:56;;;;;;;0.20;0.20;;;;;;;22.22;100.00;99685.66;5073848;28;20119;-62
2023/08/26 03:09:21;;;;;;;0.10;0.10;;;;;;;22.16;100.00;99681.59;5070960;28;20599;-62
2023/08/26 03:11:47;;;;;;;0.20;0.20;;;;;;;22.20;100.00;99687.63;5083112;28;20753;-62
2023/08/26 03:14:13;;;;;;;0.10;0.10;;;;;;;22.18;100.00;99693.16;5067128;28;20066;-63
2023/08/26 03:16:40;;;;;;;0.20;0.20;;;;;;;22.19;100.00;99700.28;5070174;28;20024;-62
2023/08/26 03:19:05;;;;;;;0.20;0.20;;;;;;;22.18;100.00;99689.59;5070000;28;20508;-62
2023/08/26 03:21:31;;;;;;;0.10;0.10;;;;;;;22.15;100.00;99690.72;5073747;28;20022;-62
2023/08/26 03:23:57;;;;;;;0.10;0.10;;;;;;;22.13;100.00;99697.25;5083384;28;20024;-62
2023/08/26 03:26:23;;;;;;;0.10;0.10;;;;;;;22.14;100.00;99696.28;5088897;28;20026;-62
2023/08/26 03:28:49;;;;;;;0.20;0.20;;;;;;;22.14;100.00;99704.41;5085783;28;20582;-62
2023/08/26 03:31:14;;;;;;;0.10;0.10;;;;;;;22.10;100.00;99709.22;5085826;28;20028;-63
2023/08/26 03:33:40;;;;;;;0.20;0.20;;;;;;;22.01;100.00;99706.41;5076017;28;20028;-62
2023/08/26 03:36:06;;;;;;;0.10;0.10;;;;;;;21.95;100.00;99706.94;5086541;28;21012;-62
2023/08/26 03:38:34;;;;;;;0.20;0.20;;;;;;;21.86;100.00;99702.31;5086557;28;20039;-62
2023/08/26 03:41:04;;;;;;;0.13;0.13;;;;;;;21.80;100.00;99709.06;5087007;28;20028;-62
2023/08/26 03:43:30;;;;;;;0.10;0.10;;;;;;;21.76;100.00;99699.47;5089699;28;20020;-62
2023/08/26 03:45:56;;;;;;;0.20;0.20;;;;;;;21.71;100.00;99707.09;5071474;28;20086;-62
2023/08/26 03:48:21;;;;;;;0.10;0.10;;;;;;;21.68;100.00;99701.94;5072063;28;20044;-62
2023/08/26 03:50:53;;;;;;;0.20;0.20;;;;;;;21.65;100.00;99707.59;5082690;28;20027;-63
2023/08/26 03:53:19;;;;;;;0.10;0.10;;;;;;;21.65;100.00;99714.84;5090829;28;20089;-62
2023/08/26 03:55:45;;;;;;;0.20;0.20;;;;;;;21.64;100.00;99715.84;5075316;28;20040;-62
2023/08/26 03:58:11;;;;;;;0.10;0.10;;;;;;;21.61;100.00;99711.56;5072971;28;20021;-62
2023/08/26 04:00:37;;;;;;;0.20;0.20;;;;;;;21.61;100.00;99721.53;5070908;28;20031;-62
2023/08/26 04:03:04;;;;;;;0.20;0.20;;;;;;;21.61;100.00;99719.69;5085911;28;20108;-62
2023/08/26 04:05:30;;;;;;;0.10;0.10;;;;;;;21.59;100.00;99715.38;5075224;28;20028;-62
2023/08/26 04:07:55;;;;;;;0.10;0.10;;;;;;;21.65;100.00;99720.28;5091182;28;20129;-62
2023/08/26 04:10:21;;;;;;;0.10;0.10;;;;;;;21.66;100.00;99725.56;5087476;28;20032;-62
2023/08/26 04:12:46;;;;;;;0.10;0.10;;;;;;;21.65;100.00;99720.28;5087420;28;20111;-62
2023/08/26 04:15:11;;;;;;;0.10;0.10;;;;;;;21.63;100.00;99725.81;5069678;28;20128;-62
2023/08/26 04:17:37;;;;;;;0.10;0.10;;;;;;;21.62;100.00;99717.81;5070846;28;20016;-62
2023/08/26 04:20:03;;;;;;;0.20;0.20;;;;;;;21.62;100.00;99724.09;5055126;28;20024;-62
2023/08/26 04:22:28;;;;;;;0.10;0.10;;;;;;;21.64;100.00;99721.28;5053105;28;20028;-62
2023/08/26 04:24:55;;;;;;;0.10;0.10;;;;;;;21.58;100.00;99732.63;5050932;28;20064;-62
2023/08/26 04:27:20;;;;;;;0.17;0.17;;;;;;;21.50;100.00;99729.69;5052902;28;20028;-61
2023/08/26 04:29:46;;;;;;;0.13;0.13;;;;;;;21.48;100.00;99731.66;5065375;28;20041;-62
2023/08/26 04:32:11;;;;;;;0.20;0.20;;;;;;;21.43;100.00;99736.56;5050492;28;20029;-61
2023/08/26 04:34:36;;;;;;;0.10;0.10;;;;;;;21.41;100.00;99738.53;5051687;28;20035;-62
2023/08/26 04:37:02;;;;;;;0.10;0.10;;;;;;;21.32;100.00;99742.84;5057275;28;20045;-62
2023/08/26 04:39:27;;;;;;;0.10;0.10;;;;;;;21.35;100.00;99741.75;5049612;28;20063;-62
2023/08/26 04:41:53;;;;;;;0.10;0.10;;;;;;;21.32;100.00;99747.38;5051087;28;20382;-62
2023/08/26 04:44:19;;;;;;;0.20;0.20;;;;;;;21.24;100.00;99747.13;5049088;28;20108;-62
2023/08/26 04:46:45;;;;;;;0.10;0.10;;;;;;;21.33;100.00;99754.53;5048940;28;20029;-62
2023/08/26 04:49:10;;;;;;;0.10;0.10;;;;;;;21.31;100.00;99751.09;5056239;28;20025;-62
2023/08/26 04:51:38;;;;;;;0.20;0.20;;;;;;;21.32;100.00;99747.38;5052710;28;20477;-62
2023/08/26 04:54:03;;;;;;;0.20;0.20;;;;;;;21.28;100.00;99757.63;5049620;28;20496;-63
2023/08/26 04:56:29;;;;;;;0.10;0.10;;;;;;;21.30;100.00;99746.66;5067101;28;20033;-62
2023/08/26 04:58:54;;;;;;;0.20;0.20;;;;;;;21.32;100.00;99744.66;5067440;28;20024;-62
2023/08/26 05:01:20;;;;;;;0.10;0.10;;;;;;;21.31;100.00;99756.50;5054058;28;20021;-62
2023/08/26 05:03:45;;;;;;;0.20;0.20;;;;;;;21.29;100.00;99762.03;5064292;28;20372;-63
2023/08/26 05:06:11;;;;;;;0.10;0.10;;;;;;;21.27;100.00;99766.69;5052856;28;20041;-62
2023/08/26 05:08:36;;;;;;;0.10;0.10;;;;;;;21.25;100.00;99759.69;5049052;28;20116;-61
2023/08/26 05:11:03;;;;;;;0.20;0.20;;;;;;;21.27;100.00;99760.44;5051480;28;20397;-62
2023/08/26 05:13:29;;;;;;;0.10;0.10;;;;;;;21.23;100.00;99759.84;5058856;28;20053;-62
2023/08/26 05:15:54;;;;;;;0.20;0.20;;;;;;;21.25;100.00;99774.06;5070737;28;20471;-62
2023/08/26 05:18:21;;;;;;;0.10;0.10;;;;;;;21.21;100.00;99766.34;5069487;28;20017;-62
2023/08/26 05:20:47;;;;;;;0.20;0.20;;;;;;;21.19;100.00;99763.75;5069334;28;20028;-62
2023/08/26 05:23:14;;;;;;;0.10;0.10;;;;;;;21.25;100.00;99767.81;5054125;28;20541;-62
2023/08/26 05:25:40;;;;;;;0.10;0.10;;;;;;;21.25;100.00;99762.41;5078943;28;20021;-62
2023/08/26 05:28:06;;;;;;;0.20;0.20;;;;;;;21.26;100.00;99764.13;5050479;28;20028;-61
2023/08/26 05:30:33;;;;;;;0.10;0.10;;;;;;;21.20;100.00;99751.09;5051579;28;20032;-62
2023/08/26 05:32:58;;;;;;;0.20;0.20;;;;;;;21.32;100.00;99763.63;5068880;28;20025;-62
2023/08/26 05:35:23;;;;;;;0.20;0.20;;;;;;;21.36;100.00;99767.81;5051367;28;20035;-62
2023/08/26 05:37:49;;;;;;;0.20;0.20;;;;;;;21.34;100.00;99767.06;5071850;28;20074;-62
2023/08/26 05:40:15;;;;;;;0.20;0.20;;;;;;;21.35;100.00;99783.19;5069345;28;20020;-62
2023/08/26 05:42:41;;;;;;;0.20;0.20;;;;;;;21.38;100.00;99784.78;5071672;28;20024;-62
2023/08/26 05:45:08;;;;;;;0.20;0.20;;;;;;;21.36;100.00;99795.75;5069064;28;20031;-62
2023/08/26 05:47:34;;;;;;;0.10;0.10;;;;;;;21.34;100.00;99799.53;5069127;28;20031;-62
2023/08/26 05:50:00;;;;;;;0.20;0.20;;;;;;;21.37;100.00;99799.28;5070750;28;20723;-62
2023/08/26 05:52:25;;;;;;;0.20;0.20;;;;;;;21.41;100.00;99800.78;5068581;28;20024;-62
2023/08/26 05:54:51;;;;;;;0.20;0.20;;;;;;;21.46;100.00;99795.84;5070803;28;20105;-63
2023/08/26 05:57:17;;;;;;;0.20;0.20;;;;;;;21.56;100.00;99794.13;5067926;28;20042;-62
2023/08/26 05:59:42;;;;;;;0.10;0.10;;;;;;;21.64;100.00;99788.94;5067872;28;20437;-62
2023/08/26 06:02:08;;;;;;;0.20;0.20;;;;;;;21.62;100.00;99799.03;5070136;28;20396;-62
2023/08/26 06:04:34;;;;;;;0.10;0.10;;;;;;;21.69;100.00;99816.50;5079050;28;20016;-62
2023/08/26 06:06:59;;;;;;;0.20;0.20;;;;;;;21.76;100.00;99817.75;5087835;28;20368;-62
2023/08/26 06:09:25;;;;;;;0.10;0.10;;;;;;;21.82;100.00;99811.84;5088654;28;20521;-62
2023/08/26 06:11:50;;;;;;;0.20;0.20;;;;;;;21.91;100.00;99798.41;5082227;28;20016;-62
2023/08/26 06:14:16;;;;;;;0.10;0.10;;;;;;;21.99;100.00;99795.91;5072903;28;20070;-62
2023/08/26 06:16:42;;;;;;;0.10;0.10;;;;;;;22.14;100.00;99801.94;5065249;28;20032;-62
2023/08/26 06:19:08;;;;;;;0.10;0.10;;;;;;;22.28;100.00;99798.94;5068833;28;20163;-62
2023/08/26 06:21:34;;;;;;;0.20;0.20;;;;;;;22.50;100.00;99804.28;5065559;28;20123;-62
2023/08/26 06:23:59;;;;;;;0.10;0.10;;;;;;;22.64;100.00;99806.69;5067787;28;20094;-62
2023/08/26 06:26:25;;;;;;;0.10;0.10;;;;;;;22.62;100.00;99811.38;5054510;28;20089;-63
2023/08/26 06:28:51;;;;;;;0.15;0.15;;;;;;;22.53;100.00;99814.88;5052971;28;20033;-62
2023/08/26 06:31:17;;;;;;;0.10;0.10;;;;;;;22.23;97.00;99809.28;5053713;28;20107;-63
2023/08/26 06:33:43;;;;;;;0.10;0.10;;;;;;;22.09;97.75;99810.44;5064595;28;20469;-62
2023/08/26 06:36:08;;;;;;;0.20;0.20;;;;;;;22.03;99.31;99823.63;5052164;28;20493;-63
2023/08/26 06:38:34;;;;;;;0.20;0.20;;;;;;;21.92;99.35;99829.06;5062206;28;20059;-62
2023/08/26 06:40:59;;;;;;;0.17;0.17;;;;;;;21.82;99.79;99836.22;5053872;28;20062;-62
2023/08/26 06:43:25;;;;;;;0.20;0.20;;;;;;;21.73;100.00;99842.38;5054661;28;20473;-62
2023/08/26 06:45:50;;;;;;;0.10;0.10;;;;;;;21.66;100.00;99838.44;5051535;28;20040;-62
2023/08/26 06:48:16;;;;;;;0.20;0.20;;;;;;;21.61;100.00;99827.09;5046993;28;20184;-62
2023/08/26 06:50:47;;;;;;;0.10;0.10;;;;;;;21.59;100.00;99826.34;5048096;28;20467;-63
2023/08/26 06:53:13;;;;;;;0.15;0.15;;;;;;;21.58;100.00;99827.34;5046327;28;20082;-62
2023/08/26 06:55:38;;;;;;;0.10;0.10;;;;;;;21.57;100.00;99817.50;5056406;28;20024;-62
2023/08/26 06:58:03;;;;;;;0.10;0.10;;;;;;;21.55;100.00;99814.03;5056185;28;20025;-62
2023/08/26 07:00:29;;;;;;;0.10;0.10;;;;;;;21.49;100.00;99820.84;5047098;28;20025;-63
2023/08/26 07:02:54;;;;;;;0.20;0.20;;;;;;;21.39;100.00;99818.97;5049455;28;20082;-63
2023/08/26 07:05:20;;;;;;;0.10;0.10;;;;;;;21.34;100.00;99813.94;5055287;28;20040;-63
2023/08/26 07:07:45;;;;;;;0.20;0.20;;;;;;;21.30;100.00;99827.84;5067428;28;20139;-62
2023/08/26 07:10:10;;;;;;;0.10;0.10;;;;;;;21.26;100.00;99827.22;5053138;28;20040;-63
2023/08/26 07:12:36;;;;;;;0.20;0.20;;;;;;;21.22;98.09;99827.59;5049372;28;20025;-62
2023/08/26 07:15:03;;;;;;;0.10;0.10;;;;;;;21.20;97.30;99818.72;5069720;28;20109;-63
2023/08/26 07:17:28;;;;;;;0.20;0.20;;;;;;;21.28;98.80;99817.16;5067883;28;20029;-62
2023/08/26 07:19:54;;;;;;;0.20;0.20;;;;;;;21.28;100.00;99821.69;5068211;28;20691;-62
2023/08/26 07:22:19;;;;;;;0.10;0.10;;;;;;;21.28;100.00;99816.28;5070342;28;20530;-62
2023/08/26 07:24:45;;;;;;;0.20;0.20;;;;;;;21.29;100.00;99817.97;5072333;28;20562;-63
2023/08/26 07:27:12;;;;;;;0.10;0.10;;;;;;;21.30;100.00;99798.06;5069767;28;20525;-62
2023/08/26 07:29:38;;;;;;;0.10;0.10;;;;;;;21.39;100.00;99800.03;5078348;28;20032;-62
2023/08/26 07:32:04;;;;;;;0.10;0.10;;;;;;;21.53;100.00;99780.84;5067863;28;20025;-63
2023/08/26 07:34:29;;;;;;;0.10;0.10;;;;;;;21.76;100.00;99793.38;5068368;28;20804;-62
2023/08/26 07:36:55;;;;;;;0.10;0.10;;;;;;;21.98;100.00;99790.63;5086689;28;20032;-62
2023/08/26 07:39:21;;;;;;;0.13;0.13;;;;;;;22.27;99.96;99791.78;5089320;28;20024;-62
2023/08/26 07:41:46;;;;;;;0.10;0.10;;;;;;;22.62;91.55;99797.81;5091368;28;20484;-62
2023/08/26 07:44:12;;;;;;;0.10;0.10;;;;;;;22.98;87.99;99800.06;5086518;28;20043;-63
2023/08/26 07:46:37;;;;;;;0.20;0.20;;;;;;;23.28;80.37;99792.00;5070409;28;20526;-62
2023/08/26 07:49:04;;;;;;;0.20;0.20;;;;;;;23.75;82.99;99795.91;5070382;28;20066;-63
2023/08/26 07:51:29;;;;;;;0.10;0.10;;;;;;;24.38;78.54;99789.22;5070069;28;20480;-63
2023/08/26 07:53:54;;;;;;;0.10;0.10;;;;;;;25.14;72.41;99785.56;5072648;28;20028;-63
2023/08/26 07:56:20;;;;;;;0.10;0.10;;;;;;;25.74;64.17;99788.66;5073078;28;20016;-62
2023/08/26 07:58:45;;;;;;;0.10;0.10;;;;;;;26.13;60.45;99793.94;5073184;28;20110;-62
2023/08/26 08:01:11;;;;;;;0.10;0.10;;;;;;;25.86;55.35;99802.94;5078173;28;20082;-62
2023/08/26 08:03:36;;;;;;;0.10;0.10;;;;;;;25.57;57.37;99807.66;5085983;28;20031;-62
2023/08/26 08:06:02;;;;;;;0.10;0.10;;;;;;;25.12;61.45;99806.63;5084775;28;20028;-63
2023/08/26 08:08:27;;;;;;;0.10;0.10;;;;;;;24.67;65.36;99812.72;5079301;28;20023;-62
2023/08/26 08:10:52;;;;;;;0.10;0.10;;;;;;;24.33;67.26;99807.81;5071803;28;20032;-62
2023/08/26 08:13:18;;;;;;;0.10;0.10;;;;;;;24.01;69.21;99812.59;5091181;28;20675;-62
2023/08/26 08:15:43;;;;;;;0.10;0.10;;;;;;;23.63;71.23;99812.44;5082539;28;20416;-62
2023/08/26 08:18:09;;;;;;;0.10;0.10;;;;;;;23.43;75.39;99811.50;5051029;28;20056;-62
2023/08/26 08:20:34;;;;;;;0.10;0.10;;;;;;;23.22;76.95;99811.53;5053860;28;20020;-62
2023/08/26 08:22:59;;;;;;;0.10;0.10;;;;;;;23.16;79.69;99809.31;5055999;28;20040;-63
2023/08/26 08:25:25;;;;;;;0.10;0.10;;;;;;;23.09;82.04;99800.03;5060520;28;20051;-62
2023/08/26 08:27:50;;;;;;;0.10;0.10;;;;;;;23.14;83.14;99789.63;5049870;28;20028;-63
2023/08/26 08:30:16;;;;;;;0.10;0.10;;;;;;;23.32;80.31;99793.47;5049904;28;20487;-62
2023/08/26 08:32:41;;;;;;;0.10;0.10;;;;;;;23.47;75.89;99796.66;5051802;28;20055;-62
2023/08/26 08:35:07;;;;;;;0.10;0.10;;;;;;;23.89;73.90;99791.94;5053620;28;20078;-62
2023/08/26 08:37:34;;;;;;;0.10;0.10;;;;;;;24.28;70.46;99804.66;5058151;28;20055;-63
2023/08/26 08:39:59;;;;;;;0.10;0.10;;;;;;;24.32;64.47;99806.94;5060071;28;20052;-62
2023/08/26 08:42:25;;;;;;;0.10;0.10;;;;;;;24.16;65.02;99808.47;5066021;28;20079;-63
2023/08/26 08:44:51;;;;;;;0.10;0.10;;;;;;;23.83;61.86;99815.09;5051025;28;20112;-62
2023/08/26 08:47:17;;;;;;;0.10;0.10;;;;;;;23.73;65.08;99825.06;5048996;28;20029;-62
2023/08/26 08:49:46;;;;;;;0.10;0.10;;;;;;;23.58;66.13;99817.41;5059480;28;20257;-63
2023/08/26 08:52:11;;;;;;;0.10;0.10;;;;;;;23.58;70.13;99815.56;5068151;28;20017;-62
2023/08/26 08:54:37;;;;;;;0.10;0.10;;;;;;;23.56;74.52;99805.84;5067807;28;20036;-63
2023/08/26 08:57:04;;;;;;;0.10;0.10;;;;;;;23.70;77.76;99808.19;5049694;28;20040;-63
2023/08/26 08:59:32;;;;;;;0.10;0.10;;;;;;;23.70;77.05;99813.63;5050505;28;20021;-61
2023/08/26 09:01:59;;;;;;;0.10;0.10;;;;;;;23.78;78.05;99806.50;5058510;28;20034;-61
2023/08/26 09:04:25;;;;;;;0.10;0.10;;;;;;;23.85;79.17;99810.41;5050066;28;20021;-62
2023/08/26 09:06:52;;;;;;;0.10;0.10;;;;;;;23.94;77.67;99805.97;5068883;28;20028;-61
2023/08/26 09:09:18;;;;;;;0.10;0.10;;;;;;;24.10;77.52;99806.34;5072706;28;20503;-61
2023/08/26 09:11:44;;;;;;;0.10;0.10;;;;;;;24.28;78.48;99810.91;5072056;28;20016;-62
2023/08/26 09:14:09;;;;;;;0.10;0.10;;;;;;;24.28;62.17;99801.94;5063727;28;20591;-62
2023/08/26 09:16:37;;;;;;;0.10;0.10;;;;;;;24.51;68.26;99803.38;5070588;28;20020;-62
2023/08/26 09:19:05;;;;;;;0.10;0.10;;;;;;;24.94;70.30;99803.81;5088833;28;20097;-62
2023/08/26 09:21:31;;;;;;;0.10;0.10;;;;;;;25.50;62.92;99791.03;5089199;28;20038;-62
2023/08/26 09:23:57;;;;;;;0.10;0.10;;;;;;;26.19;56.34;99783.25;5079696;28;20452;-62
2023/08/26 09:26:26;;;;;;;0.10;0.10;;;;;;;26.89;55.65;99787.84;5078158;28;20036;-62
2023/08/26 09:28:52;;;;;;;0.10;0.10;;;;;;;27.17;50.79;99784.84;5089752;28;20027;-62
2023/08/26 09:31:19;;;;;;;0.10;0.10;;;;;;;27.16;54.50;99785.88;5085215;28;20446;-62
2023/08/26 09:34:00;;;;;;;0.10;0.10;;;;;;;26.93;50.97;99795.59;5089299;28;20495;-62
2023/08/26 09:36:41;;;;;;;0.10;0.10;;;;;;;26.58;58.34;99786.53;5085062;28;20032;-62
2023/08/26 09:39:16;;;;;;;0.10;0.10;;;;;;;26.14;58.98;99779.28;5088018;28;20392;-62
2023/08/26 09:41:43;;;;;;;0.10;0.10;;;;;;;25.72;52.77;99779.78;5074914;28;20153;-62
2023/08/26 09:44:12;;;;;;;0.10;0.10;;;;;;;25.58;57.84;99793.03;5066949;28;20032;-62
2023/08/26 09:46:39;;;;;;;0.10;0.10;;;;;;;25.32;57.22;99795.53;5069368;28;20441;-62
2023/08/26 09:49:05;;;;;;;0.10;0.10;;;;;;;24.86;56.06;99790.03;5067117;28;20441;-62
2023/08/26 09:51:31;;;;;;;0.10;0.10;;;;;;;24.70;64.35;99792.50;5069085;28;20421;-62
2023/08/26 09:53:59;;;;;;;0.10;0.10;;;;;;;24.39;66.90;99799.06;5068722;28;20035;-62
2023/08/26 09:56:27;;;;;;;0.10;0.10;;;;;;;24.00;69.07;99794.59;5086690;28;20039;-62
2023/08/26 09:58:54;;;;;;;0.10;0.10;;;;;;;23.66;72.77;99791.28;5075488;28;20077;-62
2023/08/26 10:01:20;;;;;;;0.10;0.10;;;;;;;23.54;75.99;99795.13;5068909;28;20021;-62
2023/08/26 10:03:53;;;;;;;0.10;0.10;;;;;;;23.52;76.95;99778.13;5070565;28;20376;-62
2023/08/26 10:06:22;;;;;;;0.10;0.10;;;;;;;23.44;74.79;99786.09;5073187;28;20955;-61
2023/08/26 10:08:55;;;;;;;0.10;0.10;;;;;;;23.40;74.09;99796.34;5077910;28;20035;-62
2023/08/26 10:11:22;;;;;;;0.10;0.10;;;;;;;23.44;74.88;99786.91;5080680;28;20032;-62
2023/08/26 10:13:50;;;;;;;0.10;0.10;;;;;;;23.58;74.83;99792.97;5068588;28;20044;-62
2023/08/26 10:16:18;;;;;;;0.10;0.10;;;;;;;23.53;73.19;99784.38;5068909;28;20020;-62
2023/08/26 10:18:52;;;;;;;0.10;0.10;;;;;;;23.51;72.11;99786.41;5059472;28;20142;-61
2023/08/26 10:21:18;;;;;;;0.10;0.10;;;;;;;23.58;73.73;99790.25;5088500;28;20402;-62
2023/08/26 10:23:44;;;;;;;0.10;0.10;;;;;;;23.58;75.05;99782.13;5084820;28;20023;-62
2023/08/26 10:26:10;;;;;;;0.10;0.10;;;;;;;23.61;77.10;99788.13;5088656;28;20717;-61
2023/08/26 10:28:37;;;;;;;0.10;0.10;;;;;;;23.52;76.85;99793.53;5087969;28;20061;-62
2023/08/26 10:31:09;;;;;;;0.10;0.10;;;;;;;23.28;76.09;99808.28;5087806;28;20055;-62
2023/08/26 10:34:05;;;;;;;0.10;0.10;;;;;;;23.09;76.06;99813.59;5079875;28;20019;-61
2023/08/26 10:36:34;;;;;;;0.10;0.10;;;;;;;23.11;77.70;99808.84;5085047;28;20026;-62
2023/08/26 10:38:59;;;;;;;0.10;0.10;;;;;;;23.05;77.83;99813.97;5083729;28;20047;-62
2023/08/26 10:41:26;;;;;;;0.08;0.08;;;;;;;22.94;73.78;99819.47;5086296;28;20020;-61
2023/08/26 10:44:01;;;;;;;0.10;0.10;;;;;;;22.83;75.96;99804.09;5087341;28;20559;-62
2023/08/26 10:46:55;;;;;;;0.10;0.10;;;;;;;23.01;79.14;99801.69;5071164;28;20059;-62
2023/08/26 10:49:30;;;;;;;0.10;0.10;;;;;;;22.90;80.79;99818.88;5064459;28;20118;-61
2023/08/26 10:52:17;;;;;;;0.10;0.10;;;;;;;22.90;82.22;99813.44;5075829;28;20038;-62
2023/08/26 10:54:46;;;;;;;0.10;0.10;;;;;;;22.91;82.58;99804.34;5073682;28;20028;-61
2023/08/26 10:57:12;;;;;;;0.10;0.10;;;;;;;22.78;82.08;99798.25;5081234;28;20024;-62
2023/08/26 10:59:40;;;;;;;0.10;0.10;;;;;;;22.75;84.36;99803.91;5074882;28;20039;-61
2023/08/26 11:02:09;;;;;;;0.10;0.10;;;;;;;22.72;86.38;99809.59;5068589;28;20024;-62
2023/08/26 11:04:45;;;;;;;0.10;0.10;;;;;;;22.56;87.70;99820.03;5077197;28;20270;-61
2023/08/26 11:07:19;;;;;;;0.10;0.10;;;;;;;22.45;88.53;99817.34;5084551;28;20484;-62
2023/08/26 11:09:45;;;;;;;0.10;0.10;;;;;;;22.42;88.31;99795.06;5087561;28;20681;-62
2023/08/26 11:12:27;;;;;;;0.10;0.10;;;;;;;22.31;87.84;99798.66;5082316;28;20115;-62
2023/08/26 11:15:01;;;;;;;0.10;0.10;;;;;;;22.35;88.31;99799.28;5052681;28;20044;-61
2023/08/26 11:17:27;;;;;;;0.10;0.10;;;;;;;22.42;88.89;99798.59;5074410;28;20036;-62
2023/08/26 11:19:52;;;;;;;0.10;0.10;;;;;;;22.47;88.08;99790.94;5072176;28;20024;-62
2023/08/26 11:22:23;;;;;;;0.10;0.10;;;;;;;22.53;88.03;99787.78;5073967;28;20043;-62
2023/08/26 11:24:48;;;;;;;0.10;0.10;;;;;;;22.63;87.32;99786.00;5071605;28;20117;-62
2023/08/26 11:27:14;;;;;;;0.00;0.00;;;;;;;22.68;85.17;99796.44;5070711;28;20063;-63